This is the latest recevied weather packets stored in our database for station/object JH1LWU-13. If no packets are shown the sender has not sent any weather packets the latest 10 day(s).
| Time | Temp. | Humidity | Pressure | Rain* | Wind** | Luminosity | Snow |
|---|---|---|---|---|---|---|---|
| 1777966481 | 20° C | 28% | 1017 hPa | 0 mm | - | - | - |
| 1777964680 | 21.11° C | 25% | 1015 hPa | 0 mm | - | - | - |
| 1777962879 | 21.11° C | 20% | 1015 hPa | 0 mm | - | - | - |
| 1777961078 | 21.67° C | 16% | 1015 hPa | 0 mm | - | - | - |
| 1777959277 | 21.67° C | 17% | 1015 hPa | 0 mm | - | - | - |
| 1777957476 | 22.22° C | 18% | 1017 hPa | 0 mm | - | - | - |
| 1777955675 | 22.22° C | 18% | 1015 hPa | 0 mm | - | - | - |
| 1777953874 | 22.22° C | 20% | 1017 hPa | 0 mm | - | - | - |
| 1777952073 | 22.22° C | 21% | 1016 hPa | 0 mm | - | - | - |
| 1777950272 | 22.78° C | 21% | 1016 hPa | 0 mm | - | - | - |
| 1777948471 | 22.22° C | 20% | 1016 hPa | 0 mm | - | - | - |
| 1777946670 | 22.22° C | 20% | 1016 hPa | 0 mm | - | - | - |
| 1777944869 | 22.78° C | 20% | 1015 hPa | 0 mm | - | - | - |
| 1777943068 | 21.67° C | 21% | 1015 hPa | 0 mm | - | - | - |
| 1777941267 | 21.11° C | 22% | 1015 hPa | 0 mm | - | - | - |
| 1777939466 | 20.56° C | 24% | 1016 hPa | 0 mm | - | - | - |
| 1777937665 | 20° C | 24% | 1015 hPa | 0 mm | - | - | - |
| 1777935864 | 18.89° C | 26% | 1015 hPa | 0 mm | - | - | - |
| 1777934063 | 17.78° C | 28% | 1015 hPa | 0 mm | - | - | - |
| 1777932262 | 16.67° C | 30% | 1015 hPa | 0 mm | - | - | - |
| 1777930461 | 15.56° C | 35% | 1013 hPa | 0 mm | - | - | - |
| 1777928660 | 13.89° C | 38% | 1015 hPa | 0 mm | - | - | - |
| 1777926859 | 12.78° C | 39% | 1013 hPa | 0 mm | - | - | - |
| 1777925058 | 12.78° C | 40% | 1012 hPa | 0 mm | - | - | - |
| 1777923257 | 12.78° C | 41% | 1010 hPa | 0 mm | - | - | - |
* Rain latest hour (hover to see other rain measurements)
** Current wind speed in m/s (hover to see current wind gust speed)